sensor_id;sensor_type;location;lat;lon;timestamp;P1;durP1;ratioP1;P2;durP2;ratioP2
67156;SDS011;54086;50.126;8.710;2022-12-07T00:00:29;21.63;;;9.52;;
67156;SDS011;54086;50.126;8.710;2022-12-07T00:02:55;18.30;;;8.87;;
67156;SDS011;54086;50.126;8.710;2022-12-07T00:05:20;16.53;;;8.10;;
67156;SDS011;54086;50.126;8.710;2022-12-07T00:07:45;16.33;;;8.47;;
67156;SDS011;54086;50.126;8.710;2022-12-07T00:10:11;19.97;;;9.07;;
67156;SDS011;54086;50.126;8.710;2022-12-07T00:12:36;19.17;;;8.20;;
67156;SDS011;54086;50.126;8.710;2022-12-07T00:15:02;18.87;;;9.00;;
67156;SDS011;54086;50.126;8.710;2022-12-07T00:17:27;18.90;;;8.77;;
67156;SDS011;54086;50.126;8.710;2022-12-07T00:19:53;17.57;;;8.07;;
67156;SDS011;54086;50.126;8.710;2022-12-07T00:22:18;21.77;;;9.23;;
67156;SDS011;54086;50.126;8.710;2022-12-07T00:24:43;17.87;;;8.93;;
67156;SDS011;54086;50.126;8.710;2022-12-07T00:27:08;17.30;;;8.33;;
67156;SDS011;54086;50.126;8.710;2022-12-07T00:29:34;18.10;;;8.90;;
67156;SDS011;54086;50.126;8.710;2022-12-07T00:31:59;18.97;;;8.73;;
67156;SDS011;54086;50.126;8.710;2022-12-07T00:34:24;18.67;;;8.23;;
67156;SDS011;54086;50.126;8.710;2022-12-07T00:36:50;18.13;;;8.40;;
67156;SDS011;54086;50.126;8.710;2022-12-07T00:39:15;17.53;;;8.77;;
67156;SDS011;54086;50.126;8.710;2022-12-07T00:41:41;19.42;;;9.05;;
67156;SDS011;54086;50.126;8.710;2022-12-07T00:44:06;19.13;;;8.87;;
67156;SDS011;54086;50.126;8.710;2022-12-07T00:46:31;17.63;;;8.53;;
67156;SDS011;54086;50.126;8.710;2022-12-07T00:48:57;19.67;;;9.23;;
67156;SDS011;54086;50.126;8.710;2022-12-07T00:51:23;17.57;;;8.17;;
67156;SDS011;54086;50.126;8.710;2022-12-07T00:53:50;18.88;;;8.75;;
67156;SDS011;54086;50.126;8.710;2022-12-07T00:56:17;19.45;;;8.32;;
67156;SDS011;54086;50.126;8.710;2022-12-07T00:58:53;18.25;;;8.77;;
67156;SDS011;54086;50.126;8.710;2022-12-07T01:01:20;18.20;;;8.60;;
67156;SDS011;54086;50.126;8.710;2022-12-07T01:03:46;18.33;;;8.60;;
67156;SDS011;54086;50.126;8.710;2022-12-07T01:06:13;17.77;;;8.13;;
67156;SDS011;54086;50.126;8.710;2022-12-07T01:08:41;17.73;;;8.85;;
67156;SDS011;54086;50.126;8.710;2022-12-07T01:11:07;18.87;;;8.50;;
67156;SDS011;54086;50.126;8.710;2022-12-07T01:13:34;17.58;;;8.85;;
67156;SDS011;54086;50.126;8.710;2022-12-07T01:16:00;18.30;;;8.67;;
67156;SDS011;54086;50.126;8.710;2022-12-07T01:18:31;18.13;;;8.32;;
67156;SDS011;54086;50.126;8.710;2022-12-07T01:20:59;18.50;;;8.50;;
67156;SDS011;54086;50.126;8.710;2022-12-07T01:23:29;18.33;;;8.73;;
67156;SDS011;54086;50.126;8.710;2022-12-07T01:25:59;16.55;;;7.30;;
67156;SDS011;54086;50.126;8.710;2022-12-07T01:28:27;17.30;;;7.33;;
67156;SDS011;54086;50.126;8.710;2022-12-07T01:31:00;20.83;;;9.60;;
67156;SDS011;54086;50.126;8.710;2022-12-07T01:33:28;17.65;;;8.75;;
67156;SDS011;54086;50.126;8.710;2022-12-07T01:36:02;17.35;;;8.27;;
67156;SDS011;54086;50.126;8.710;2022-12-07T01:38:34;20.17;;;8.70;;
67156;SDS011;54086;50.126;8.710;2022-12-07T01:41:00;19.73;;;9.50;;
67156;SDS011;54086;50.126;8.710;2022-12-07T01:43:27;19.45;;;8.68;;
67156;SDS011;54086;50.126;8.710;2022-12-07T01:45:54;16.55;;;7.70;;
67156;SDS011;54086;50.126;8.710;2022-12-07T01:48:31;17.17;;;8.45;;
67156;SDS011;54086;50.126;8.710;2022-12-07T01:51:08;18.07;;;8.17;;
67156;SDS011;54086;50.126;8.710;2022-12-07T01:53:36;18.42;;;8.80;;
67156;SDS011;54086;50.126;8.710;2022-12-07T01:56:04;18.27;;;8.35;;
67156;SDS011;54086;50.126;8.710;2022-12-07T01:58:32;20.20;;;9.30;;
67156;SDS011;54086;50.126;8.710;2022-12-07T02:00:58;21.13;;;9.80;;
67156;SDS011;54086;50.126;8.710;2022-12-07T02:03:24;21.70;;;10.80;;
67156;SDS011;54086;50.126;8.710;2022-12-07T02:05:56;22.70;;;10.88;;
67156;SDS011;54086;50.126;8.710;2022-12-07T02:08:24;23.02;;;11.02;;
67156;SDS011;54086;50.126;8.710;2022-12-07T02:10:50;25.63;;;12.23;;
67156;SDS011;54086;50.126;8.710;2022-12-07T02:13:16;19.03;;;9.50;;
67156;SDS011;54086;50.126;8.710;2022-12-07T02:15:47;20.77;;;10.10;;
67156;SDS011;54086;50.126;8.710;2022-12-07T02:18:25;20.33;;;9.57;;
67156;SDS011;54086;50.126;8.710;2022-12-07T02:21:19;20.52;;;8.63;;
67156;SDS011;54086;50.126;8.710;2022-12-07T02:24:03;16.48;;;7.97;;
67156;SDS011;54086;50.126;8.710;2022-12-07T02:29:14;16.73;;;7.75;;
67156;SDS011;54086;50.126;8.710;2022-12-07T02:31:49;17.50;;;7.63;;
67156;SDS011;54086;50.126;8.710;2022-12-07T02:36:55;16.95;;;8.02;;
67156;SDS011;54086;50.126;8.710;2022-12-07T02:39:31;17.83;;;7.57;;
67156;SDS011;54086;50.126;8.710;2022-12-07T02:42:15;19.88;;;8.48;;
67156;SDS011;54086;50.126;8.710;2022-12-07T02:44:45;17.10;;;7.67;;
67156;SDS011;54086;50.126;8.710;2022-12-07T02:47:12;16.50;;;7.30;;
67156;SDS011;54086;50.126;8.710;2022-12-07T02:49:42;16.60;;;7.53;;
67156;SDS011;54086;50.126;8.710;2022-12-07T02:52:08;17.10;;;7.22;;
67156;SDS011;54086;50.126;8.710;2022-12-07T02:54:33;15.83;;;7.13;;
67156;SDS011;54086;50.126;8.710;2022-12-07T03:10:58;16.63;;;7.00;;
67156;SDS011;54086;50.126;8.710;2022-12-07T03:16:05;17.20;;;7.50;;
67156;SDS011;54086;50.126;8.710;2022-12-07T03:18:41;15.40;;;7.07;;
67156;SDS011;54086;50.126;8.710;2022-12-07T03:21:11;16.48;;;6.10;;
67156;SDS011;54086;50.126;8.710;2022-12-07T03:23:44;13.75;;;6.13;;
67156;SDS011;54086;50.126;8.710;2022-12-07T03:26:14;16.52;;;6.82;;
67156;SDS011;54086;50.126;8.710;2022-12-07T03:28:44;14.45;;;6.80;;
67156;SDS011;54086;50.126;8.710;2022-12-07T03:31:23;17.37;;;6.67;;
67156;SDS011;54086;50.126;8.710;2022-12-07T03:33:55;18.50;;;7.50;;
67156;SDS011;54086;50.126;8.710;2022-12-07T03:36:50;16.50;;;7.22;;
67156;SDS011;54086;50.126;8.710;2022-12-07T03:39:24;15.00;;;6.35;;
67156;SDS011;54086;50.126;8.710;2022-12-07T03:41:54;14.50;;;6.68;;
67156;SDS011;54086;50.126;8.710;2022-12-07T03:44:21;13.87;;;6.37;;
67156;SDS011;54086;50.126;8.710;2022-12-07T03:49:51;15.18;;;6.88;;
67156;SDS011;54086;50.126;8.710;2022-12-07T03:52:26;15.43;;;6.45;;
67156;SDS011;54086;50.126;8.710;2022-12-07T03:55:19;17.45;;;6.47;;
67156;SDS011;54086;50.126;8.710;2022-12-07T03:57:47;14.90;;;6.37;;
67156;SDS011;54086;50.126;8.710;2022-12-07T04:00:14;14.65;;;6.15;;
67156;SDS011;54086;50.126;8.710;2022-12-07T04:02:40;18.15;;;6.85;;
67156;SDS011;54086;50.126;8.710;2022-12-07T04:05:07;14.90;;;6.50;;
67156;SDS011;54086;50.126;8.710;2022-12-07T04:07:32;13.85;;;6.05;;
67156;SDS011;54086;50.126;8.710;2022-12-07T04:09:58;15.10;;;5.70;;
67156;SDS011;54086;50.126;8.710;2022-12-07T04:12:23;13.47;;;6.00;;
67156;SDS011;54086;50.126;8.710;2022-12-07T04:14:49;15.80;;;5.93;;
67156;SDS011;54086;50.126;8.710;2022-12-07T04:17:14;14.35;;;6.10;;
67156;SDS011;54086;50.126;8.710;2022-12-07T04:19:40;14.97;;;5.97;;
67156;SDS011;54086;50.126;8.710;2022-12-07T04:22:05;13.73;;;5.77;;
67156;SDS011;54086;50.126;8.710;2022-12-07T04:24:31;13.40;;;6.28;;
67156;SDS011;54086;50.126;8.710;2022-12-07T04:26:57;15.25;;;6.55;;
67156;SDS011;54086;50.126;8.710;2022-12-07T04:29:23;13.07;;;5.67;;
67156;SDS011;54086;50.126;8.710;2022-12-07T04:31:49;13.98;;;6.20;;
67156;SDS011;54086;50.126;8.710;2022-12-07T04:34:15;17.40;;;6.27;;
67156;SDS011;54086;50.126;8.710;2022-12-07T04:36:42;13.02;;;5.90;;
67156;SDS011;54086;50.126;8.710;2022-12-07T04:39:13;14.38;;;6.07;;
67156;SDS011;54086;50.126;8.710;2022-12-07T04:41:46;12.63;;;5.55;;
67156;SDS011;54086;50.126;8.710;2022-12-07T04:44:12;13.53;;;5.87;;
67156;SDS011;54086;50.126;8.710;2022-12-07T04:46:39;12.77;;;5.82;;
67156;SDS011;54086;50.126;8.710;2022-12-07T04:49:04;15.40;;;5.90;;
67156;SDS011;54086;50.126;8.710;2022-12-07T04:51:30;15.30;;;5.63;;
67156;SDS011;54086;50.126;8.710;2022-12-07T04:53:55;12.73;;;5.23;;
67156;SDS011;54086;50.126;8.710;2022-12-07T04:56:21;12.45;;;5.82;;
67156;SDS011;54086;50.126;8.710;2022-12-07T04:58:48;12.93;;;5.60;;
67156;SDS011;54086;50.126;8.710;2022-12-07T05:01:13;13.67;;;5.43;;
67156;SDS011;54086;50.126;8.710;2022-12-07T05:03:40;13.85;;;5.90;;
67156;SDS011;54086;50.126;8.710;2022-12-07T05:06:06;14.10;;;5.97;;
67156;SDS011;54086;50.126;8.710;2022-12-07T05:08:33;12.80;;;5.43;;
67156;SDS011;54086;50.126;8.710;2022-12-07T05:10:59;15.60;;;5.82;;
67156;SDS011;54086;50.126;8.710;2022-12-07T05:13:25;12.53;;;5.43;;
67156;SDS011;54086;50.126;8.710;2022-12-07T05:15:51;14.55;;;5.90;;
67156;SDS011;54086;50.126;8.710;2022-12-07T05:18:16;13.90;;;6.73;;
67156;SDS011;54086;50.126;8.710;2022-12-07T05:20:42;13.37;;;5.83;;
67156;SDS011;54086;50.126;8.710;2022-12-07T05:23:07;13.48;;;6.00;;
67156;SDS011;54086;50.126;8.710;2022-12-07T05:25:33;14.47;;;5.97;;
67156;SDS011;54086;50.126;8.710;2022-12-07T05:27:59;14.65;;;6.38;;
67156;SDS011;54086;50.126;8.710;2022-12-07T05:30:24;13.37;;;6.00;;
67156;SDS011;54086;50.126;8.710;2022-12-07T05:32:50;13.85;;;6.20;;
67156;SDS011;54086;50.126;8.710;2022-12-07T05:35:16;16.23;;;6.40;;
67156;SDS011;54086;50.126;8.710;2022-12-07T05:37:42;12.97;;;5.63;;
67156;SDS011;54086;50.126;8.710;2022-12-07T05:40:08;13.32;;;5.95;;
67156;SDS011;54086;50.126;8.710;2022-12-07T05:42:34;16.23;;;6.50;;
67156;SDS011;54086;50.126;8.710;2022-12-07T05:45:00;13.77;;;6.60;;
67156;SDS011;54086;50.126;8.710;2022-12-07T05:47:25;17.53;;;6.50;;
67156;SDS011;54086;50.126;8.710;2022-12-07T05:49:50;14.77;;;6.70;;
67156;SDS011;54086;50.126;8.710;2022-12-07T05:52:16;16.30;;;6.78;;
67156;SDS011;54086;50.126;8.710;2022-12-07T05:54:41;15.23;;;6.80;;
67156;SDS011;54086;50.126;8.710;2022-12-07T05:57:06;16.13;;;6.83;;
67156;SDS011;54086;50.126;8.710;2022-12-07T05:59:32;17.30;;;6.53;;
67156;SDS011;54086;50.126;8.710;2022-12-07T06:02:05;14.45;;;6.78;;
67156;SDS011;54086;50.126;8.710;2022-12-07T06:04:36;15.27;;;6.32;;
67156;SDS011;54086;50.126;8.710;2022-12-07T06:07:03;16.93;;;6.57;;
67156;SDS011;54086;50.126;8.710;2022-12-07T06:09:30;14.43;;;6.63;;
67156;SDS011;54086;50.126;8.710;2022-12-07T06:11:55;16.33;;;6.90;;
67156;SDS011;54086;50.126;8.710;2022-12-07T06:14:39;16.60;;;6.88;;
67156;SDS011;54086;50.126;8.710;2022-12-07T06:17:05;13.77;;;6.28;;
67156;SDS011;54086;50.126;8.710;2022-12-07T06:19:31;14.15;;;6.50;;
67156;SDS011;54086;50.126;8.710;2022-12-07T06:21:57;14.93;;;6.17;;
67156;SDS011;54086;50.126;8.710;2022-12-07T06:24:22;15.07;;;6.33;;
67156;SDS011;54086;50.126;8.710;2022-12-07T06:26:48;15.43;;;7.10;;
67156;SDS011;54086;50.126;8.710;2022-12-07T06:29:14;14.07;;;6.35;;
67156;SDS011;54086;50.126;8.710;2022-12-07T06:31:40;15.07;;;6.43;;
67156;SDS011;54086;50.126;8.710;2022-12-07T06:34:07;24.77;;;9.70;;
67156;SDS011;54086;50.126;8.710;2022-12-07T06:36:37;18.10;;;7.57;;
67156;SDS011;54086;50.126;8.710;2022-12-07T06:39:03;17.00;;;6.77;;
67156;SDS011;54086;50.126;8.710;2022-12-07T06:41:30;15.93;;;7.72;;
67156;SDS011;54086;50.126;8.710;2022-12-07T06:43:55;16.63;;;7.33;;
67156;SDS011;54086;50.126;8.710;2022-12-07T06:46:21;15.20;;;7.30;;
67156;SDS011;54086;50.126;8.710;2022-12-07T06:48:46;15.93;;;7.32;;
67156;SDS011;54086;50.126;8.710;2022-12-07T06:51:12;17.40;;;8.03;;
67156;SDS011;54086;50.126;8.710;2022-12-07T06:53:38;16.65;;;6.63;;
67156;SDS011;54086;50.126;8.710;2022-12-07T06:56:03;15.67;;;7.17;;
67156;SDS011;54086;50.126;8.710;2022-12-07T06:58:29;16.08;;;7.18;;
67156;SDS011;54086;50.126;8.710;2022-12-07T07:00:54;21.60;;;7.63;;
67156;SDS011;54086;50.126;8.710;2022-12-07T07:03:20;17.00;;;7.33;;
67156;SDS011;54086;50.126;8.710;2022-12-07T07:05:45;16.95;;;7.25;;
67156;SDS011;54086;50.126;8.710;2022-12-07T07:08:11;15.70;;;7.00;;
67156;SDS011;54086;50.126;8.710;2022-12-07T07:10:37;15.95;;;7.43;;
67156;SDS011;54086;50.126;8.710;2022-12-07T07:13:03;19.50;;;8.07;;
67156;SDS011;54086;50.126;8.710;2022-12-07T07:15:28;15.70;;;6.63;;
67156;SDS011;54086;50.126;8.710;2022-12-07T07:17:54;14.80;;;6.80;;
67156;SDS011;54086;50.126;8.710;2022-12-07T07:20:19;15.90;;;6.70;;
67156;SDS011;54086;50.126;8.710;2022-12-07T07:22:45;17.37;;;7.40;;
67156;SDS011;54086;50.126;8.710;2022-12-07T07:25:10;27.08;;;7.95;;
67156;SDS011;54086;50.126;8.710;2022-12-07T07:27:36;18.03;;;7.03;;
67156;SDS011;54086;50.126;8.710;2022-12-07T07:30:01;16.23;;;7.30;;
67156;SDS011;54086;50.126;8.710;2022-12-07T07:32:27;19.55;;;8.18;;
67156;SDS011;54086;50.126;8.710;2022-12-07T07:34:53;18.03;;;7.17;;
67156;SDS011;54086;50.126;8.710;2022-12-07T07:37:18;16.30;;;8.77;;
67156;SDS011;54086;50.126;8.710;2022-12-07T07:39:43;16.43;;;7.77;;
67156;SDS011;54086;50.126;8.710;2022-12-07T07:42:09;17.53;;;7.43;;
67156;SDS011;54086;50.126;8.710;2022-12-07T07:44:34;15.27;;;7.30;;
67156;SDS011;54086;50.126;8.710;2022-12-07T07:47:00;17.90;;;7.97;;
67156;SDS011;54086;50.126;8.710;2022-12-07T07:49:25;18.37;;;7.90;;
67156;SDS011;54086;50.126;8.710;2022-12-07T07:51:51;17.67;;;7.90;;
67156;SDS011;54086;50.126;8.710;2022-12-07T07:54:16;15.82;;;7.65;;
67156;SDS011;54086;50.126;8.710;2022-12-07T07:56:42;19.13;;;7.73;;
67156;SDS011;54086;50.126;8.710;2022-12-07T07:59:07;16.47;;;7.43;;
67156;SDS011;54086;50.126;8.710;2022-12-07T08:01:33;16.30;;;7.75;;
67156;SDS011;54086;50.126;8.710;2022-12-07T08:03:58;20.50;;;7.87;;
67156;SDS011;54086;50.126;8.710;2022-12-07T08:06:25;16.07;;;7.00;;
67156;SDS011;54086;50.126;8.710;2022-12-07T08:08:52;17.58;;;7.63;;
67156;SDS011;54086;50.126;8.710;2022-12-07T08:11:17;15.70;;;7.03;;
67156;SDS011;54086;50.126;8.710;2022-12-07T08:13:45;16.60;;;8.07;;
67156;SDS011;54086;50.126;8.710;2022-12-07T08:16:11;16.93;;;7.50;;
67156;SDS011;54086;50.126;8.710;2022-12-07T08:18:38;17.95;;;7.90;;
67156;SDS011;54086;50.126;8.710;2022-12-07T08:21:06;19.98;;;8.05;;
67156;SDS011;54086;50.126;8.710;2022-12-07T08:23:32;18.90;;;8.50;;
67156;SDS011;54086;50.126;8.710;2022-12-07T08:26:09;18.95;;;7.75;;
67156;SDS011;54086;50.126;8.710;2022-12-07T08:28:36;15.93;;;7.20;;
67156;SDS011;54086;50.126;8.710;2022-12-07T08:31:06;17.55;;;7.43;;
67156;SDS011;54086;50.126;8.710;2022-12-07T08:33:39;16.20;;;7.72;;
67156;SDS011;54086;50.126;8.710;2022-12-07T08:36:06;14.33;;;6.83;;
67156;SDS011;54086;50.126;8.710;2022-12-07T08:38:37;18.05;;;7.78;;
67156;SDS011;54086;50.126;8.710;2022-12-07T08:41:03;17.17;;;7.27;;
67156;SDS011;54086;50.126;8.710;2022-12-07T08:43:29;15.55;;;7.30;;
67156;SDS011;54086;50.126;8.710;2022-12-07T08:48:27;17.17;;;8.30;;
67156;SDS011;54086;50.126;8.710;2022-12-07T08:50:52;17.57;;;7.70;;
67156;SDS011;54086;50.126;8.710;2022-12-07T08:53:18;18.30;;;8.23;;
67156;SDS011;54086;50.126;8.710;2022-12-07T08:55:44;16.47;;;6.90;;
67156;SDS011;54086;50.126;8.710;2022-12-07T08:58:10;14.45;;;7.15;;
67156;SDS011;54086;50.126;8.710;2022-12-07T09:00:36;15.57;;;6.93;;
67156;SDS011;54086;50.126;8.710;2022-12-07T09:03:01;16.97;;;7.23;;
67156;SDS011;54086;50.126;8.710;2022-12-07T09:05:27;14.20;;;6.73;;
67156;SDS011;54086;50.126;8.710;2022-12-07T09:07:54;13.48;;;6.90;;
67156;SDS011;54086;50.126;8.710;2022-12-07T09:10:22;15.60;;;7.03;;
67156;SDS011;54086;50.126;8.710;2022-12-07T09:12:48;14.20;;;6.60;;
67156;SDS011;54086;50.126;8.710;2022-12-07T09:15:13;15.13;;;7.33;;
67156;SDS011;54086;50.126;8.710;2022-12-07T09:17:39;16.83;;;6.60;;
67156;SDS011;54086;50.126;8.710;2022-12-07T09:20:05;11.25;;;5.30;;
67156;SDS011;54086;50.126;8.710;2022-12-07T09:22:31;12.18;;;5.57;;
67156;SDS011;54086;50.126;8.710;2022-12-07T09:24:57;14.73;;;6.73;;
67156;SDS011;54086;50.126;8.710;2022-12-07T09:27:24;12.98;;;5.57;;
67156;SDS011;54086;50.126;8.710;2022-12-07T09:29:49;11.20;;;5.78;;
67156;SDS011;54086;50.126;8.710;2022-12-07T09:32:15;12.67;;;5.83;;
67156;SDS011;54086;50.126;8.710;2022-12-07T09:34:40;13.07;;;6.33;;
67156;SDS011;54086;50.126;8.710;2022-12-07T09:37:05;12.10;;;5.20;;
67156;SDS011;54086;50.126;8.710;2022-12-07T09:39:31;11.85;;;5.03;;
67156;SDS011;54086;50.126;8.710;2022-12-07T09:41:57;12.23;;;4.82;;
67156;SDS011;54086;50.126;8.710;2022-12-07T09:44:24;12.47;;;6.07;;
67156;SDS011;54086;50.126;8.710;2022-12-07T09:46:51;11.13;;;5.00;;
67156;SDS011;54086;50.126;8.710;2022-12-07T09:49:19;14.15;;;5.68;;
67156;SDS011;54086;50.126;8.710;2022-12-07T09:51:46;15.38;;;5.80;;
67156;SDS011;54086;50.126;8.710;2022-12-07T09:54:12;12.65;;;4.90;;
67156;SDS011;54086;50.126;8.710;2022-12-07T09:56:39;14.93;;;5.23;;
67156;SDS011;54086;50.126;8.710;2022-12-07T09:59:05;10.93;;;4.63;;
67156;SDS011;54086;50.126;8.710;2022-12-07T10:01:31;15.60;;;5.23;;
67156;SDS011;54086;50.126;8.710;2022-12-07T10:04:18;16.60;;;6.25;;
67156;SDS011;54086;50.126;8.710;2022-12-07T10:06:47;13.80;;;6.03;;
67156;SDS011;54086;50.126;8.710;2022-12-07T10:09:14;12.38;;;5.65;;
67156;SDS011;54086;50.126;8.710;2022-12-07T10:12:00;16.37;;;6.17;;
67156;SDS011;54086;50.126;8.710;2022-12-07T10:14:26;12.05;;;5.43;;
67156;SDS011;54086;50.126;8.710;2022-12-07T10:16:54;12.05;;;5.22;;
67156;SDS011;54086;50.126;8.710;2022-12-07T10:22:05;12.10;;;5.65;;
67156;SDS011;54086;50.126;8.710;2022-12-07T10:24:41;14.20;;;6.03;;
67156;SDS011;54086;50.126;8.710;2022-12-07T10:29:46;10.38;;;4.68;;
67156;SDS011;54086;50.126;8.710;2022-12-07T10:34:40;13.77;;;5.60;;
67156;SDS011;54086;50.126;8.710;2022-12-07T10:42:42;11.53;;;3.57;;
67156;SDS011;54086;50.126;8.710;2022-12-07T10:45:08;10.23;;;3.40;;
67156;SDS011;54086;50.126;8.710;2022-12-07T10:50:25;8.18;;;3.15;;
67156;SDS011;54086;50.126;8.710;2022-12-07T11:12:28;7.03;;;2.28;;
67156;SDS011;54086;50.126;8.710;2022-12-07T11:15:13;11.48;;;3.47;;
67156;SDS011;54086;50.126;8.710;2022-12-07T11:23:44;9.50;;;3.13;;
67156;SDS011;54086;50.126;8.710;2022-12-07T11:31:34;9.23;;;2.83;;
67156;SDS011;54086;50.126;8.710;2022-12-07T11:36:54;8.83;;;3.33;;
67156;SDS011;54086;50.126;8.710;2022-12-07T11:41:55;11.17;;;3.80;;
67156;SDS011;54086;50.126;8.710;2022-12-07T11:44:47;8.73;;;3.22;;
67156;SDS011;54086;50.126;8.710;2022-12-07T11:47:27;7.10;;;3.10;;
67156;SDS011;54086;50.126;8.710;2022-12-07T11:50:18;9.13;;;3.38;;
67156;SDS011;54086;50.126;8.710;2022-12-07T11:52:51;9.10;;;3.30;;
67156;SDS011;54086;50.126;8.710;2022-12-07T12:06:34;9.48;;;3.40;;
67156;SDS011;54086;50.126;8.710;2022-12-07T12:14:34;21.77;;;4.68;;
67156;SDS011;54086;50.126;8.710;2022-12-07T12:22:37;9.20;;;2.33;;
67156;SDS011;54086;50.126;8.710;2022-12-07T12:25:06;11.43;;;3.05;;
67156;SDS011;54086;50.126;8.710;2022-12-07T12:27:40;11.02;;;3.33;;
67156;SDS011;54086;50.126;8.710;2022-12-07T12:30:25;6.15;;;2.20;;
67156;SDS011;54086;50.126;8.710;2022-12-07T12:33:30;8.23;;;2.42;;
67156;SDS011;54086;50.126;8.710;2022-12-07T12:46:47;7.75;;;3.10;;
67156;SDS011;54086;50.126;8.710;2022-12-07T12:49:40;11.17;;;3.33;;
67156;SDS011;54086;50.126;8.710;2022-12-07T12:54:39;8.55;;;2.90;;
67156;SDS011;54086;50.126;8.710;2022-12-07T12:57:28;9.57;;;2.58;;
67156;SDS011;54086;50.126;8.710;2022-12-07T13:00:00;8.35;;;2.70;;
67156;SDS011;54086;50.126;8.710;2022-12-07T13:02:55;8.03;;;2.20;;
67156;SDS011;54086;50.126;8.710;2022-12-07T13:05:30;9.30;;;2.05;;
67156;SDS011;54086;50.126;8.710;2022-12-07T13:08:03;9.15;;;2.47;;
67156;SDS011;54086;50.126;8.710;2022-12-07T13:10:41;10.80;;;3.10;;
67156;SDS011;54086;50.126;8.710;2022-12-07T13:15:39;10.33;;;1.77;;
67156;SDS011;54086;50.126;8.710;2022-12-07T13:28:49;6.03;;;1.93;;
67156;SDS011;54086;50.126;8.710;2022-12-07T13:31:19;8.18;;;2.70;;
67156;SDS011;54086;50.126;8.710;2022-12-07T13:33:46;7.60;;;2.10;;
67156;SDS011;54086;50.126;8.710;2022-12-07T13:36:22;9.80;;;2.60;;
67156;SDS011;54086;50.126;8.710;2022-12-07T13:38:54;8.63;;;2.20;;
67156;SDS011;54086;50.126;8.710;2022-12-07T13:41:24;10.80;;;3.60;;
67156;SDS011;54086;50.126;8.710;2022-12-07T13:44:01;7.97;;;3.20;;
67156;SDS011;54086;50.126;8.710;2022-12-07T13:49:38;6.70;;;1.55;;
67156;SDS011;54086;50.126;8.710;2022-12-07T13:52:16;6.10;;;2.05;;
67156;SDS011;54086;50.126;8.710;2022-12-07T13:54:49;7.47;;;2.27;;
67156;SDS011;54086;50.126;8.710;2022-12-07T13:57:22;9.73;;;2.83;;
67156;SDS011;54086;50.126;8.710;2022-12-07T13:59:49;6.70;;;2.10;;
67156;SDS011;54086;50.126;8.710;2022-12-07T14:04:49;7.53;;;2.22;;
67156;SDS011;54086;50.126;8.710;2022-12-07T14:07:24;5.88;;;2.50;;
67156;SDS011;54086;50.126;8.710;2022-12-07T14:09:58;7.45;;;2.40;;
67156;SDS011;54086;50.126;8.710;2022-12-07T14:12:31;13.18;;;2.78;;
67156;SDS011;54086;50.126;8.710;2022-12-07T14:14:58;8.53;;;1.87;;
67156;SDS011;54086;50.126;8.710;2022-12-07T14:17:26;7.47;;;2.55;;
67156;SDS011;54086;50.126;8.710;2022-12-07T14:19:55;7.38;;;2.38;;
67156;SDS011;54086;50.126;8.710;2022-12-07T14:27:34;9.50;;;2.33;;
67156;SDS011;54086;50.126;8.710;2022-12-07T14:30:00;8.67;;;2.73;;
67156;SDS011;54086;50.126;8.710;2022-12-07T14:32:27;9.80;;;3.03;;
67156;SDS011;54086;50.126;8.710;2022-12-07T14:35:08;6.70;;;2.53;;
67156;SDS011;54086;50.126;8.710;2022-12-07T14:37:36;9.75;;;2.97;;
67156;SDS011;54086;50.126;8.710;2022-12-07T14:40:02;7.00;;;2.35;;
67156;SDS011;54086;50.126;8.710;2022-12-07T14:42:29;6.60;;;2.63;;
67156;SDS011;54086;50.126;8.710;2022-12-07T14:44:56;7.73;;;2.63;;
67156;SDS011;54086;50.126;8.710;2022-12-07T14:47:23;8.32;;;2.72;;
67156;SDS011;54086;50.126;8.710;2022-12-07T14:49:49;10.10;;;3.15;;
67156;SDS011;54086;50.126;8.710;2022-12-07T14:52:17;8.77;;;2.47;;
67156;SDS011;54086;50.126;8.710;2022-12-07T14:54:45;7.43;;;2.35;;
67156;SDS011;54086;50.126;8.710;2022-12-07T14:57:11;8.03;;;2.20;;
67156;SDS011;54086;50.126;8.710;2022-12-07T14:59:36;7.00;;;2.13;;
67156;SDS011;54086;50.126;8.710;2022-12-07T15:02:02;6.97;;;2.30;;
67156;SDS011;54086;50.126;8.710;2022-12-07T15:04:28;7.50;;;2.35;;
67156;SDS011;54086;50.126;8.710;2022-12-07T15:06:55;9.47;;;3.03;;
67156;SDS011;54086;50.126;8.710;2022-12-07T15:09:21;7.05;;;2.28;;
67156;SDS011;54086;50.126;8.710;2022-12-07T15:11:46;6.93;;;2.27;;
67156;SDS011;54086;50.126;8.710;2022-12-07T15:14:12;7.97;;;2.10;;
67156;SDS011;54086;50.126;8.710;2022-12-07T15:16:38;8.27;;;2.40;;
67156;SDS011;54086;50.126;8.710;2022-12-07T15:19:05;8.97;;;2.80;;
67156;SDS011;54086;50.126;8.710;2022-12-07T15:21:35;8.48;;;2.25;;
67156;SDS011;54086;50.126;8.710;2022-12-07T15:24:00;10.77;;;2.90;;
67156;SDS011;54086;50.126;8.710;2022-12-07T15:26:26;8.47;;;2.90;;
67156;SDS011;54086;50.126;8.710;2022-12-07T15:28:52;13.40;;;4.13;;
67156;SDS011;54086;50.126;8.710;2022-12-07T15:31:18;9.67;;;3.10;;
67156;SDS011;54086;50.126;8.710;2022-12-07T15:33:43;10.70;;;3.37;;
67156;SDS011;54086;50.126;8.710;2022-12-07T15:36:13;9.73;;;2.80;;
67156;SDS011;54086;50.126;8.710;2022-12-07T15:38:45;8.48;;;2.97;;
67156;SDS011;54086;50.126;8.710;2022-12-07T15:41:10;10.07;;;3.27;;
67156;SDS011;54086;50.126;8.710;2022-12-07T15:43:36;7.67;;;2.43;;
67156;SDS011;54086;50.126;8.710;2022-12-07T15:46:20;9.25;;;2.70;;
67156;SDS011;54086;50.126;8.710;2022-12-07T15:48:45;7.40;;;2.77;;
67156;SDS011;54086;50.126;8.710;2022-12-07T15:51:11;8.87;;;2.37;;
67156;SDS011;54086;50.126;8.710;2022-12-07T15:53:36;9.47;;;2.43;;
67156;SDS011;54086;50.126;8.710;2022-12-07T15:56:05;7.83;;;2.40;;
67156;SDS011;54086;50.126;8.710;2022-12-07T15:58:31;6.03;;;2.58;;
67156;SDS011;54086;50.126;8.710;2022-12-07T16:00:56;8.73;;;2.87;;
67156;SDS011;54086;50.126;8.710;2022-12-07T16:03:22;9.90;;;3.13;;
67156;SDS011;54086;50.126;8.710;2022-12-07T16:05:50;9.50;;;4.67;;
67156;SDS011;54086;50.126;8.710;2022-12-07T16:08:17;11.32;;;3.30;;
67156;SDS011;54086;50.126;8.710;2022-12-07T16:10:42;8.23;;;2.47;;
67156;SDS011;54086;50.126;8.710;2022-12-07T16:13:08;10.13;;;2.93;;
67156;SDS011;54086;50.126;8.710;2022-12-07T16:15:37;15.00;;;3.20;;
67156;SDS011;54086;50.126;8.710;2022-12-07T16:18:05;12.80;;;3.35;;
67156;SDS011;54086;50.126;8.710;2022-12-07T16:20:31;12.07;;;3.33;;
67156;SDS011;54086;50.126;8.710;2022-12-07T16:22:57;12.83;;;3.80;;
67156;SDS011;54086;50.126;8.710;2022-12-07T16:25:22;7.50;;;3.10;;
67156;SDS011;54086;50.126;8.710;2022-12-07T16:27:48;9.70;;;3.50;;
67156;SDS011;54086;50.126;8.710;2022-12-07T16:30:14;12.20;;;3.77;;
67156;SDS011;54086;50.126;8.710;2022-12-07T16:32:41;11.55;;;3.45;;
67156;SDS011;54086;50.126;8.710;2022-12-07T16:35:06;8.90;;;3.90;;
67156;SDS011;54086;50.126;8.710;2022-12-07T16:37:32;9.95;;;3.45;;
67156;SDS011;54086;50.126;8.710;2022-12-07T16:39:57;10.87;;;3.33;;
67156;SDS011;54086;50.126;8.710;2022-12-07T16:42:22;10.80;;;3.57;;
67156;SDS011;54086;50.126;8.710;2022-12-07T16:44:48;9.47;;;2.90;;
67156;SDS011;54086;50.126;8.710;2022-12-07T16:47:13;9.43;;;2.70;;
67156;SDS011;54086;50.126;8.710;2022-12-07T16:49:38;12.70;;;3.13;;
67156;SDS011;54086;50.126;8.710;2022-12-07T16:52:04;13.00;;;3.70;;
67156;SDS011;54086;50.126;8.710;2022-12-07T16:54:29;9.33;;;3.17;;
67156;SDS011;54086;50.126;8.710;2022-12-07T16:56:57;9.80;;;3.40;;
67156;SDS011;54086;50.126;8.710;2022-12-07T16:59:23;10.80;;;3.10;;
67156;SDS011;54086;50.126;8.710;2022-12-07T17:01:48;9.10;;;2.83;;
67156;SDS011;54086;50.126;8.710;2022-12-07T17:04:14;12.13;;;3.67;;